KOZR/OZR METAR and TAF weather

Enter ICAO airport designator
Station Type Date Time Source
KOZR METAR 2019/12/14 17:01 UTC NOAA

KOZR 141701Z AUTO 29009G14KT 10SM SCT016 13/08 A2989 RMK AO2 SLP124


Station Type Date Time Source
KOZR Decoded METAR 2019/12/14 17:01 UTC NOAA

Cairns Army Air Field / Ozark, AL, United States (KOZR) 31-17N 085-43W
Dec 14, 2019 - 12:01 PM EST / 2019.12.14 1701 UTC
Wind: from the WNW (290 degrees) at 10 MPH (9 KT) gusting to 16 MPH (14 KT):0
Visibility: 10 mile(s):0
Sky conditions: partly cloudy
Temperature: 55 F (13 C)
Dew Point: 46 F (8 C)
Relative Humidity: 71%
Pressure (altimeter): 29.89 in. Hg (1012 hPa)
ob: KOZR 141701Z AUTO 29009G14KT 10SM SCT016 13/08 A2989 RMK AO2 SLP124
cycle: 17

Station Type Date Time Source
KOZR TAF 2019/12/14 00:06 UTC NOAA

TAF KOZR 140000Z 1400/1506 31006KT 4800 -SHRA BR BKN004 OVC020 QNH2973INS
TEMPO 1400/1404 VRB12G22KT 3200 -TSRA OVC010CB
BECMG 1405/1406 30006KT 8000 BR BKN006 QNH2977INS
BECMG 1414/1415 29010G15KT 9999 NSW BKN015 QNH2987INS
BECMG 1420/1421 29006KT 9999 SCT010 BKN020 QNH2988INS TX16/1418Z TN08/1412Z LAST NO
AMDS AFT 1407 NEXT 1608

Example: see airport list